Aeroporto :
LOGIN :

Iscrizione | Disclaimer

   EN    FR    IT 

 










Sommario :    VFR   VFR Marginale   IFR   IFR Intensivo   IFR Molto Intensivo
Visibilità : 
Base nubi : 
>= 8 km
>= 3000ft
5 / 8 km
1000 / 3000 ft
1500m / 5 km
500 / 1000 ft
800 / 1500m
200 / 500 ft
< 800m
< 200 ft
Simboli :   Temporali  Nebbia  Neve Forte  Precipitazioni Forti  Vento > 20 kt
SIGMETs :   Varie  Temporali  Ghiacco  Turbolenza  Onda orograficha  Ceneri Vulcaniche






- Altitudine del aeroporto : 370 ft


EBBE - Beauvechain AB

ULTIMO METAR :
  • 291955Z AUTO 23010KT 9999 FEW030/// BKN035/// BKN150/// 06/02 Q1013 BLU

METARs OBSOLETI :
  • 291925Z AUTO 23011KT 9999 SCT033/// OVC150/// 06/02 Q1013 BLU
  • 291855Z AUTO 23009KT 9999 BKN034/// BKN170/// 06/02 Q1013 BLU
  • 291825Z AUTO 23008KT 9999 SCT032/// BKN180/// 06/01 Q1013 BLU
  • 291755Z AUTO 21007KT 9999 FEW032/// BKN170/// 05/01 Q1013 BLU
  • 291725Z AUTO 22007KT 9999 BKN170/// 05/01 Q1013 BLU

TAF TAF EBBE
Valido dal 29 a 19 ore il 30 a 07 ore UTC


291541Z 2919/3007 23012KT 9999 SCT015
BECMG 3002/3004 SCT030



MetMap, La meteo Aeronautica in un colpo d'occhio ! - Copyright ORBIFLY Dicembre 2007 - Disclaimer

ORBIFLY MET'MAP TEAM :

Programmazione e sviluppo : Alexandra Zaïnal
Concezione : Baudouin d'Aumeries
Aiuto per la programmazione : Marc-Olivier Méhu
Supporto tecnico e logistico : Manuel Goepfert
Aiuto per la traduzione : Arnaldo La Scala

Contatto : metmap@orbifly.com




FONTI E CREDITI :

   NOAA